Time;durP1;ratioP1;P1;durP2;ratioP2;P2;SDS_P1;SDS_P2;PMS_P1;PMS_P2;Temp;Humidity;BMP_temperature;BMP_pressure;BME280_temperature;BME280_humidity;BME280_pressure;Samples;Min_cycle;Max_cycle;Signal;HPM_P1;HPM_P2
2022/05/07 00:02:19;;;;;;;5.10;2.80;;;9.30;99.90;;;;;;4995386;28;20165;-82
2022/05/07 00:04:46;;;;;;;2.50;2.30;;;9.30;99.90;;;;;;4985752;28;20054;-81
2022/05/07 00:07:13;;;;;;;3.75;2.72;;;9.20;99.90;;;;;;4997204;28;20536;-81
2022/05/07 00:09:40;;;;;;;3.03;2.40;;;9.20;99.90;;;;;;4989377;28;20109;-81
2022/05/07 00:12:08;;;;;;;3.30;3.00;;;9.20;99.90;;;;;;4981961;28;20482;-82
2022/05/07 00:14:35;;;;;;;3.42;2.20;;;9.20;99.90;;;;;;4965371;28;20220;-82
2022/05/07 00:19:48;;;;;;;3.03;2.72;;;9.20;99.90;;;;;;4981955;28;20578;-82
2022/05/07 00:22:15;;;;;;;3.65;2.72;;;9.20;99.90;;;;;;4980882;28;20146;-82
2022/05/07 00:24:42;;;;;;;3.55;2.72;;;9.20;99.90;;;;;;4979986;28;20050;-81
2022/05/07 00:27:11;;;;;;;2.78;2.58;;;9.20;99.90;;;;;;4975198;28;20078;-82
2022/05/07 00:29:39;;;;;;;2.72;2.50;;;9.20;99.90;;;;;;4961186;28;20797;-82
2022/05/07 00:32:07;;;;;;;3.17;2.50;;;9.20;99.90;;;;;;4983019;28;20150;-81
2022/05/07 00:34:35;;;;;;;4.57;2.65;;;9.20;99.90;;;;;;4973805;28;20058;-81
2022/05/07 00:37:03;;;;;;;2.60;2.40;;;9.20;99.90;;;;;;4946058;28;20078;-82
2022/05/07 00:39:30;;;;;;;4.05;3.65;;;9.20;99.90;;;;;;4960022;28;20105;-83
2022/05/07 00:42:02;;;;;;;4.97;3.22;;;9.20;99.90;;;;;;4961168;28;20043;-82
2022/05/07 00:44:29;;;;;;;3.95;2.50;;;9.20;99.90;;;;;;4981561;28;20786;-82
2022/05/07 00:47:07;;;;;;;3.00;2.80;;;9.20;99.90;;;;;;4958502;28;20097;-82
2022/05/07 00:49:35;;;;;;;3.80;3.50;;;9.20;99.90;;;;;;4980375;28;20055;-82
2022/05/07 00:52:02;;;;;;;2.88;2.60;;;9.10;99.90;;;;;;4982798;28;20511;-82
2022/05/07 00:54:29;;;;;;;2.53;2.33;;;9.10;99.90;;;;;;4977306;28;20519;-82
2022/05/07 00:56:56;;;;;;;7.75;3.30;;;9.00;99.90;;;;;;4977272;28;20206;-82
2022/05/07 00:59:23;;;;;;;3.67;3.20;;;9.00;99.90;;;;;;4978145;28;20046;-82
2022/05/07 01:01:50;;;;;;;4.00;3.05;;;8.80;99.90;;;;;;4963910;28;20042;-82
2022/05/07 01:04:17;;;;;;;2.30;2.15;;;8.80;99.90;;;;;;4980426;28;20034;-82
2022/05/07 01:06:45;;;;;;;3.10;2.75;;;8.80;99.90;;;;;;4970704;28;20051;-82
2022/05/07 01:09:12;;;;;;;2.95;2.75;;;8.70;99.90;;;;;;4957838;28;20056;-81
2022/05/07 01:11:41;;;;;;;4.75;2.83;;;8.70;99.90;;;;;;4969949;28;20082;-81
2022/05/07 01:14:08;;;;;;;5.72;3.28;;;8.70;99.90;;;;;;4980323;28;20116;-82
2022/05/07 01:16:35;;;;;;;3.35;3.05;;;8.70;99.90;;;;;;4983004;28;20108;-82
2022/05/07 01:19:03;;;;;;;3.28;2.97;;;8.60;99.90;;;;;;4974211;28;20042;-82
2022/05/07 01:21:30;;;;;;;2.70;2.28;;;8.60;99.90;;;;;;4970826;28;20530;-82
2022/05/07 01:23:59;;;;;;;4.18;3.88;;;8.60;99.90;;;;;;4962773;28;20323;-82
2022/05/07 01:26:31;;;;;;;3.30;3.10;;;8.50;99.90;;;;;;4962246;28;20112;-82
2022/05/07 01:29:01;;;;;;;2.50;2.30;;;8.50;99.90;;;;;;4981521;28;20038;-82
2022/05/07 01:31:30;;;;;;;3.45;3.15;;;8.60;99.90;;;;;;4962354;28;20049;-82
2022/05/07 01:33:57;;;;;;;3.95;2.92;;;8.60;99.90;;;;;;4964100;28;20050;-82
2022/05/07 01:36:26;;;;;;;3.08;2.78;;;8.60;99.90;;;;;;4971621;28;20380;-82
2022/05/07 01:38:59;;;;;;;5.05;3.22;;;8.70;99.90;;;;;;4962668;28;20054;-82
2022/05/07 01:41:26;;;;;;;3.63;3.25;;;8.70;99.90;;;;;;4977457;28;20058;-82
2022/05/07 01:43:53;;;;;;;5.03;3.33;;;8.80;99.90;;;;;;4949106;28;20042;-81
2022/05/07 01:49:12;;;;;;;4.50;3.05;;;8.90;99.90;;;;;;4975079;28;20713;-81
2022/05/07 01:51:39;;;;;;;3.45;3.17;;;9.00;99.90;;;;;;4957293;28;20043;-81
2022/05/07 01:54:08;;;;;;;7.00;3.88;;;9.00;99.90;;;;;;4975469;28;20070;-82
2022/05/07 01:56:35;;;;;;;3.80;3.00;;;9.10;99.90;;;;;;4972763;28;20043;-82
2022/05/07 01:59:02;;;;;;;4.22;3.63;;;9.10;99.90;;;;;;4964995;28;20046;-82
2022/05/07 02:01:29;;;;;;;4.75;3.33;;;9.20;99.90;;;;;;4959298;28;20813;-82
2022/05/07 02:03:56;;;;;;;5.45;3.17;;;9.20;99.90;;;;;;4965774;28;20042;-81
2022/05/07 02:06:27;;;;;;;4.70;4.28;;;9.20;99.90;;;;;;4967852;28;20049;-82
2022/05/07 02:08:54;;;;;;;2.80;2.58;;;9.20;99.90;;;;;;4961845;28;20053;-82
2022/05/07 02:11:27;;;;;;;3.40;3.05;;;9.20;99.90;;;;;;4959350;28;20117;-82
2022/05/07 02:13:54;;;;;;;3.40;3.10;;;9.20;99.90;;;;;;5000091;28;20046;-82
2022/05/07 02:16:21;;;;;;;7.53;4.32;;;9.30;99.90;;;;;;4981811;28;20096;-82
2022/05/07 02:18:48;;;;;;;4.50;3.33;;;9.30;99.90;;;;;;4982100;28;20045;-82
2022/05/07 02:21:15;;;;;;;5.85;3.22;;;9.30;99.90;;;;;;4972339;28;20149;-82
2022/05/07 02:23:42;;;;;;;3.78;3.42;;;9.30;99.90;;;;;;4991642;28;20140;-83
2022/05/07 02:26:09;;;;;;;6.68;3.33;;;9.40;99.90;;;;;;4981177;28;20065;-82
2022/05/07 02:28:37;;;;;;;4.28;3.08;;;9.40;99.90;;;;;;4983152;28;20061;-82
2022/05/07 02:31:07;;;;;;;3.60;3.30;;;9.50;99.90;;;;;;4989876;28;20068;-82
2022/05/07 02:33:34;;;;;;;3.58;3.28;;;9.50;99.90;;;;;;4980144;28;20049;-82
2022/05/07 02:36:04;;;;;;;5.75;3.35;;;9.50;99.90;;;;;;4980517;28;20116;-82
2022/05/07 02:38:31;;;;;;;6.07;4.10;;;9.40;99.90;;;;;;4976184;28;20033;-82
2022/05/07 02:43:43;;;;;;;8.23;4.78;;;9.50;99.90;;;;;;4979597;28;20046;-81
2022/05/07 02:46:15;;;;;;;4.57;3.55;;;9.50;99.90;;;;;;4963842;28;20374;-81
2022/05/07 02:48:45;;;;;;;4.70;3.85;;;9.50;99.90;;;;;;4996668;28;20084;-82
2022/05/07 02:51:14;;;;;;;5.05;3.97;;;9.50;99.90;;;;;;4982845;28;20038;-83
2022/05/07 02:53:43;;;;;;;4.38;3.97;;;9.50;99.90;;;;;;4980079;28;20124;-84
2022/05/07 02:56:10;;;;;;;4.10;3.67;;;9.50;99.90;;;;;;4979338;28;20042;-83
2022/05/07 02:58:37;;;;;;;4.03;3.63;;;9.50;99.90;;;;;;4996473;28;20149;-83
2022/05/07 03:01:04;;;;;;;4.68;3.40;;;9.50;99.90;;;;;;4982159;28;20056;-83
2022/05/07 03:03:31;;;;;;;3.50;3.20;;;9.50;99.90;;;;;;4976834;28;20053;-83
2022/05/07 03:06:03;;;;;;;6.75;4.35;;;9.50;99.90;;;;;;4982045;28;20481;-83
2022/05/07 03:08:34;;;;;;;4.07;3.67;;;9.50;99.90;;;;;;4998662;28;20038;-83
2022/05/07 03:11:01;;;;;;;6.00;3.60;;;9.60;99.90;;;;;;4986503;28;20259;-83
2022/05/07 03:13:30;;;;;;;6.05;4.20;;;9.60;99.90;;;;;;4979290;28;20049;-83
2022/05/07 03:15:57;;;;;;;4.82;4.32;;;9.60;99.90;;;;;;4999821;28;20076;-83
2022/05/07 03:18:25;;;;;;;5.93;4.60;;;9.70;99.90;;;;;;5000162;28;20506;-83
2022/05/07 03:20:53;;;;;;;5.15;4.65;;;9.70;99.90;;;;;;4996326;28;20481;-85
2022/05/07 03:23:20;;;;;;;7.47;4.20;;;9.80;99.90;;;;;;4979848;28;22072;-84
2022/05/07 03:25:50;;;;;;;4.72;4.10;;;9.80;99.90;;;;;;4979925;28;20471;-83
2022/05/07 03:28:17;;;;;;;5.45;4.63;;;9.80;99.90;;;;;;4980693;28;20049;-83
2022/05/07 03:30:45;;;;;;;5.32;4.72;;;9.80;99.90;;;;;;4978459;28;20137;-84
2022/05/07 03:33:14;;;;;;;7.35;5.88;;;9.90;99.90;;;;;;4996157;28;20037;-84
2022/05/07 03:35:44;;;;;;;6.60;4.75;;;9.90;99.90;;;;;;4979981;28;20489;-84
2022/05/07 03:38:11;;;;;;;8.23;5.00;;;9.90;99.90;;;;;;4981192;28;20136;-84
2022/05/07 03:40:48;;;;;;;6.75;4.90;;;10.00;99.90;;;;;;4966334;28;20149;-84
2022/05/07 03:43:15;;;;;;;5.72;5.18;;;10.00;99.90;;;;;;4981178;28;20057;-84
2022/05/07 03:45:43;;;;;;;6.03;4.72;;;10.00;99.90;;;;;;4995738;28;20050;-84
2022/05/07 03:48:11;;;;;;;5.50;4.78;;;10.00;99.90;;;;;;4978837;28;20116;-84
2022/05/07 03:50:40;;;;;;;7.82;5.25;;;10.00;99.90;;;;;;4962677;28;20062;-84
2022/05/07 03:55:54;;;;;;;7.05;6.35;;;10.10;99.90;;;;;;4993818;28;20130;-84
2022/05/07 03:58:29;;;;;;;5.38;4.80;;;10.10;99.90;;;;;;4967480;28;20041;-84
2022/05/07 04:00:58;;;;;;;7.53;5.50;;;10.10;99.90;;;;;;4978187;28;20050;-84
2022/05/07 04:03:27;;;;;;;7.60;5.88;;;10.20;99.90;;;;;;4981953;28;20570;-84
2022/05/07 04:05:56;;;;;;;5.47;4.80;;;10.20;99.90;;;;;;4985360;28;20041;-84
2022/05/07 04:08:25;;;;;;;8.43;5.40;;;10.20;99.90;;;;;;4999335;28;20045;-83
2022/05/07 04:10:53;;;;;;;8.23;5.22;;;10.30;99.90;;;;;;4984713;28;20113;-84
2022/05/07 04:13:23;;;;;;;;;;;10.30;99.90;;;;;;4967532;28;20395;-84
2022/05/07 04:15:54;;;;;;;6.40;4.80;;;10.30;99.90;;;;;;4969940;28;19975;-84
2022/05/07 04:18:25;;;;;;;8.18;6.15;;;10.30;99.90;;;;;;4985132;28;20137;-83
2022/05/07 04:20:55;;;;;;;8.43;5.75;;;10.40;99.90;;;;;;4970476;28;20395;-83
2022/05/07 04:23:22;;;;;;;7.28;5.45;;;10.40;99.90;;;;;;4993221;28;20085;-83
2022/05/07 04:25:51;;;;;;;7.85;4.97;;;10.40;99.90;;;;;;4982075;28;20046;-83
2022/05/07 04:28:20;;;;;;;5.72;5.20;;;10.50;99.90;;;;;;5001082;28;20081;-83
2022/05/07 04:30:49;;;;;;;6.82;5.70;;;10.50;99.90;;;;;;4984443;28;20590;-83
2022/05/07 04:33:22;;;;;;;5.50;4.95;;;10.50;99.90;;;;;;4982135;28;20071;-83
2022/05/07 04:35:52;;;;;;;7.35;5.82;;;10.50;99.90;;;;;;4984157;28;20595;-83
2022/05/07 04:38:22;;;;;;;8.70;5.93;;;10.50;99.90;;;;;;4999698;28;20394;-83
2022/05/07 04:40:49;;;;;;;8.07;5.95;;;10.50;99.90;;;;;;5005997;28;20354;-83
2022/05/07 04:43:21;;;;;;;8.60;5.93;;;10.50;99.90;;;;;;4983283;28;20056;-83
2022/05/07 04:45:48;;;;;;;8.40;6.78;;;10.50;99.90;;;;;;4995891;28;20053;-83
2022/05/07 04:48:21;;;;;;;8.32;6.30;;;10.60;99.90;;;;;;4977475;28;20057;-83
2022/05/07 04:50:49;;;;;;;10.27;7.40;;;10.70;99.90;;;;;;4999449;28;20041;-83
2022/05/07 04:53:29;;;;;;;9.98;6.50;;;10.70;99.90;;;;;;4980408;28;20050;-83
2022/05/07 04:56:03;;;;;;;8.82;6.18;;;10.80;99.90;;;;;;4982687;28;20069;-83
2022/05/07 04:58:34;;;;;;;5.93;5.32;;;10.90;99.90;;;;;;4980180;28;20137;-83
2022/05/07 05:01:03;;;;;;;8.55;6.93;;;10.90;99.90;;;;;;4981072;28;20041;-83
2022/05/07 05:03:34;;;;;;;7.00;6.10;;;10.90;99.90;;;;;;4993041;28;20054;-83
2022/05/07 05:06:11;;;;;;;10.20;7.35;;;10.90;99.90;;;;;;4984162;28;20100;-83
2022/05/07 05:08:54;;;;;;;8.25;6.90;;;10.90;99.90;;;;;;4959465;28;20080;-83
2022/05/07 05:11:22;;;;;;;11.35;6.18;;;10.90;99.90;;;;;;4979703;28;20042;-83
2022/05/07 05:13:49;;;;;;;7.53;6.30;;;10.90;99.90;;;;;;4966500;28;20125;-83
2022/05/07 05:16:17;;;;;;;8.93;7.55;;;10.90;99.90;;;;;;5001938;28;20096;-84
2022/05/07 05:18:51;;;;;;;11.13;8.73;;;10.90;99.90;;;;;;4990822;28;20555;-84
2022/05/07 05:21:20;;;;;;;8.18;6.53;;;10.90;99.90;;;;;;4981008;28;20053;-84
2022/05/07 05:24:16;;;;;;;9.63;7.68;;;11.00;99.90;;;;;;4986421;28;20050;-84
2022/05/07 05:26:43;;;;;;;12.32;8.80;;;11.10;99.90;;;;;;4995772;28;20110;-84
2022/05/07 05:29:16;;;;;;;9.95;7.60;;;11.10;99.90;;;;;;4981474;28;20061;-83
2022/05/07 05:31:43;;;;;;;6.75;5.90;;;11.20;99.90;;;;;;4969642;28;20060;-83
2022/05/07 05:34:21;;;;;;;10.77;7.20;;;11.20;99.90;;;;;;4984173;28;20049;-83
2022/05/07 05:36:52;;;;;;;11.30;8.18;;;11.20;99.90;;;;;;4983162;28;20188;-83
2022/05/07 05:39:21;;;;;;;12.45;9.25;;;11.40;99.90;;;;;;4981259;28;20053;-83
2022/05/07 05:41:51;;;;;;;8.02;6.63;;;11.40;99.90;;;;;;4978692;28;20450;-83
2022/05/07 05:44:18;;;;;;;13.60;9.90;;;11.50;99.90;;;;;;5000202;28;20089;-83
2022/05/07 05:46:45;;;;;;;12.70;7.97;;;11.50;99.90;;;;;;4995125;28;20049;-83
2022/05/07 05:49:13;;;;;;;8.88;7.97;;;11.60;99.90;;;;;;4968562;28;20045;-83
2022/05/07 05:51:42;;;;;;;11.82;8.82;;;11.60;99.90;;;;;;4996899;28;20526;-83
2022/05/07 05:54:10;;;;;;;9.02;7.50;;;11.60;99.90;;;;;;4982255;28;20704;-83
2022/05/07 05:56:37;;;;;;;12.02;8.60;;;11.70;99.90;;;;;;4992247;28;20053;-83
2022/05/07 05:59:06;;;;;;;10.38;7.15;;;11.60;99.90;;;;;;4982234;28;20076;-83
2022/05/07 06:01:43;;;;;;;8.95;8.05;;;11.60;99.90;;;;;;4979313;28;20046;-84
2022/05/07 06:04:15;;;;;;;8.93;7.82;;;11.50;99.90;;;;;;4982541;28;20116;-84
2022/05/07 06:06:43;;;;;;;9.35;8.00;;;11.50;99.90;;;;;;4981663;28;20057;-83
2022/05/07 06:09:12;;;;;;;11.93;9.68;;;11.40;99.90;;;;;;4981810;28;20581;-83
2022/05/07 06:11:41;;;;;;;11.23;8.15;;;11.40;99.90;;;;;;4980324;28;20053;-83
2022/05/07 06:14:09;;;;;;;9.60;8.60;;;11.40;99.90;;;;;;4983463;28;20128;-83
2022/05/07 06:16:36;;;;;;;15.02;9.68;;;11.30;99.90;;;;;;4981167;28;20145;-83
2022/05/07 06:19:09;;;;;;;13.68;9.25;;;11.30;99.90;;;;;;4981423;28;20060;-83
2022/05/07 06:21:37;;;;;;;12.88;9.95;;;11.20;99.90;;;;;;4983000;28;20888;-83
2022/05/07 06:29:38;;;;;;;15.50;10.10;;;11.20;99.90;;;;;;4991687;28;20864;-83
2022/05/07 06:32:06;;;;;;;15.10;10.45;;;11.10;99.90;;;;;;4979507;28;20045;-83
2022/05/07 06:34:33;;;;;;;14.05;9.77;;;11.10;99.90;;;;;;4980382;28;20510;-83
2022/05/07 06:37:01;;;;;;;12.07;10.85;;;11.20;99.90;;;;;;4981256;28;20060;-83
2022/05/07 06:39:31;;;;;;;14.00;10.15;;;11.10;99.90;;;;;;4992783;28;20153;-83
2022/05/07 06:41:58;;;;;;;12.60;10.90;;;11.20;99.90;;;;;;4981420;28;20166;-83
2022/05/07 06:44:25;;;;;;;14.95;11.60;;;11.20;99.90;;;;;;4962690;28;20062;-83
2022/05/07 06:46:56;;;;;;;15.60;11.35;;;11.20;99.90;;;;;;4994445;28;20504;-84
2022/05/07 06:49:24;;;;;;;13.13;10.45;;;11.30;99.90;;;;;;4979527;28;20463;-83
2022/05/07 06:51:53;;;;;;;15.18;10.88;;;11.40;99.90;;;;;;4979418;28;20795;-83
2022/05/07 06:54:21;;;;;;;13.35;10.57;;;11.40;99.90;;;;;;4981625;28;20057;-84
2022/05/07 06:56:48;;;;;;;14.32;10.85;;;11.40;99.90;;;;;;4979492;28;20053;-84
2022/05/07 06:59:15;;;;;;;14.27;11.05;;;11.50;99.90;;;;;;4998550;28;20112;-83
2022/05/07 07:01:41;;;;;;;17.90;10.88;;;11.50;99.90;;;;;;4978346;28;20061;-84
2022/05/07 07:04:09;;;;;;;16.45;12.82;;;11.50;99.90;;;;;;4999352;28;20060;-84
2022/05/07 07:06:36;;;;;;;18.15;12.15;;;11.50;99.90;;;;;;4998575;28;20610;-84
2022/05/07 07:09:03;;;;;;;16.17;11.52;;;11.50;99.90;;;;;;5000123;28;20066;-83
2022/05/07 07:11:31;;;;;;;17.13;13.52;;;11.50;99.90;;;;;;4970506;28;20166;-83
2022/05/07 07:13:58;;;;;;;16.30;11.82;;;11.50;99.90;;;;;;4973206;28;20067;-83
2022/05/07 07:16:25;;;;;;;16.58;11.82;;;11.50;99.90;;;;;;4999831;28;20050;-83
2022/05/07 07:18:52;;;;;;;15.02;12.48;;;11.60;99.90;;;;;;4974194;28;20046;-83
2022/05/07 07:21:19;;;;;;;16.02;11.80;;;11.60;99.90;;;;;;4998228;28;20829;-83
2022/05/07 07:23:47;;;;;;;17.60;12.80;;;11.80;99.90;;;;;;4977597;28;20160;-83
2022/05/07 07:26:15;;;;;;;18.60;13.90;;;11.90;99.90;;;;;;4996323;28;20050;-84
2022/05/07 07:28:42;;;;;;;18.08;13.70;;;12.00;99.90;;;;;;4980237;28;20299;-83
2022/05/07 07:31:08;;;;;;;17.55;12.43;;;12.00;99.90;;;;;;4999707;28;20046;-83
2022/05/07 07:33:38;;;;;;;18.30;13.70;;;12.00;99.90;;;;;;4984220;28;20551;-83
2022/05/07 07:36:06;;;;;;;17.50;12.82;;;12.10;99.90;;;;;;5002637;28;20049;-84
2022/05/07 07:38:34;;;;;;;19.60;12.88;;;12.10;99.90;;;;;;4999689;28;20054;-84
2022/05/07 07:41:02;;;;;;;16.95;12.55;;;12.10;99.90;;;;;;5000122;28;20121;-84
2022/05/07 07:43:30;;;;;;;17.80;11.10;;;12.10;99.90;;;;;;4982868;28;20049;-84
2022/05/07 07:48:43;;;;;;;14.95;10.93;;;12.10;99.90;;;;;;4984452;28;20135;-83
2022/05/07 07:51:10;;;;;;;16.10;11.93;;;12.20;99.90;;;;;;5003783;28;20216;-84
2022/05/07 07:53:38;;;;;;;16.30;11.35;;;12.30;99.90;;;;;;5000217;28;20118;-84
2022/05/07 07:56:07;;;;;;;15.50;11.82;;;12.30;99.90;;;;;;5004040;28;20038;-84
2022/05/07 07:58:35;;;;;;;16.75;13.05;;;12.40;99.90;;;;;;4980820;28;20146;-84
2022/05/07 08:01:02;;;;;;;15.13;13.10;;;12.30;99.90;;;;;;4985662;28;20073;-83
2022/05/07 08:03:29;;;;;;;12.57;10.23;;;12.40;99.90;;;;;;4984082;28;20434;-84
2022/05/07 08:05:57;;;;;;;13.65;10.82;;;12.40;99.90;;;;;;4986165;28;20077;-83
2022/05/07 08:13:59;;;;;;;15.38;9.80;;;12.50;99.90;;;;;;5001580;28;20042;-84
2022/05/07 08:16:26;;;;;;;14.82;11.68;;;12.50;99.90;;;;;;5002431;28;20474;-84
2022/05/07 08:18:53;;;;;;;11.20;8.98;;;12.40;99.90;;;;;;5001809;28;20112;-83
2022/05/07 08:21:20;;;;;;;11.27;9.23;;;12.40;99.90;;;;;;5000082;28;20384;-83
2022/05/07 08:23:47;;;;;;;14.55;10.35;;;12.40;99.90;;;;;;4984958;28;20587;-84
2022/05/07 08:26:15;;;;;;;11.70;9.48;;;12.40;99.90;;;;;;4999681;28;20049;-83
2022/05/07 08:28:42;;;;;;;13.88;11.63;;;12.40;99.90;;;;;;5001114;28;20116;-83
2022/05/07 08:31:13;;;;;;;15.35;10.35;;;12.40;99.90;;;;;;5002412;28;20038;-83
2022/05/07 08:33:41;;;;;;;13.10;11.07;;;12.50;99.90;;;;;;5000372;28;20441;-83
2022/05/07 08:36:10;;;;;;;14.63;10.55;;;12.50;99.90;;;;;;5002836;28;20104;-83
2022/05/07 08:38:37;;;;;;;16.65;9.40;;;12.60;99.90;;;;;;5002656;28;20060;-84
2022/05/07 08:41:05;;;;;;;13.40;10.32;;;12.60;99.90;;;;;;4984076;28;20448;-83
2022/05/07 08:43:36;;;;;;;15.57;10.30;;;12.80;99.90;;;;;;4997781;28;20077;-84
2022/05/07 08:46:16;;;;;;;12.27;10.13;;;12.90;99.90;;;;;;4983915;28;20056;-84
2022/05/07 08:48:46;;;;;;;10.17;8.97;;;13.00;99.90;;;;;;4999228;28;20057;-83
2022/05/07 08:51:15;;;;;;;11.15;8.25;;;13.10;99.90;;;;;;5000053;28;20076;-83
2022/05/07 08:53:45;;;;;;;12.48;9.02;;;13.20;99.90;;;;;;4982597;28;20100;-84
2022/05/07 08:56:14;;;;;;;10.90;9.70;;;13.30;99.90;;;;;;4992453;28;20759;-84
2022/05/07 08:58:49;;;;;;;14.30;9.07;;;13.40;99.90;;;;;;4981959;28;20132;-84
2022/05/07 09:01:16;;;;;;;10.10;8.90;;;13.60;99.90;;;;;;5002578;28;20042;-84
2022/05/07 09:03:46;;;;;;;13.80;9.43;;;13.70;99.90;;;;;;4981268;28;20050;-84
2022/05/07 09:06:23;;;;;;;10.90;8.70;;;13.80;99.90;;;;;;4983582;28;20111;-83
2022/05/07 09:08:52;;;;;;;16.75;10.38;;;13.90;99.90;;;;;;5001965;28;20632;-83
2022/05/07 09:11:19;;;;;;;14.25;10.10;;;14.00;99.90;;;;;;4976263;28;20108;-83
2022/05/07 09:13:47;;;;;;;10.77;9.63;;;14.20;99.90;;;;;;4997673;28;20554;-84
2022/05/07 09:16:15;;;;;;;11.60;9.15;;;14.30;99.90;;;;;;4983742;28;20033;-83
2022/05/07 09:18:48;;;;;;;10.07;8.23;;;14.50;99.90;;;;;;5001397;28;20510;-84
2022/05/07 09:21:16;;;;;;;10.88;9.40;;;14.70;99.90;;;;;;4999946;28;20050;-82
2022/05/07 09:23:48;;;;;;;8.65;6.68;;;14.70;99.90;;;;;;4999135;28;20073;-83
2022/05/07 09:26:24;;;;;;;7.95;7.10;;;14.80;99.90;;;;;;4998721;28;20042;-83
2022/05/07 09:28:51;;;;;;;6.50;5.82;;;14.90;99.90;;;;;;4977418;28;20063;-84
2022/05/07 09:31:30;;;;;;;7.55;6.82;;;14.90;99.90;;;;;;4995748;28;20073;-84
2022/05/07 09:35:47;;;;;;;9.40;6.53;;;14.80;99.90;;;;;;5001560;28;20061;-83
2022/05/07 09:36:45;;;;;;;7.15;6.38;;;14.70;99.90;;;;;;4996351;28;20525;-84
2022/05/07 09:39:14;;;;;;;7.47;6.72;;;14.60;99.90;;;;;;4983521;28;20050;-84
2022/05/07 09:41:45;;;;;;;9.32;6.13;;;14.50;99.90;;;;;;4981507;28;20045;-83
2022/05/07 09:44:13;;;;;;;7.28;5.88;;;14.40;99.90;;;;;;5000341;28;20120;-83
2022/05/07 09:46:40;;;;;;;7.07;6.32;;;14.40;99.90;;;;;;4983123;28;20714;-84
2022/05/07 09:49:08;;;;;;;12.50;6.90;;;14.40;99.90;;;;;;5000223;28;20050;-83
2022/05/07 09:51:35;;;;;;;9.30;6.25;;;14.30;99.90;;;;;;4990373;28;20110;-84
2022/05/07 09:59:36;;;;;;;6.63;6.03;;;14.50;99.90;;;;;;4990996;28;20049;-81
2022/05/07 10:02:40;;;;;;;6.00;5.33;;;14.50;99.90;;;;;;4998339;28;20050;-83
2022/05/07 10:05:31;;;;;;;7.18;5.03;;;14.50;99.90;;;;;;4981474;28;20104;-82
2022/05/07 10:08:36;;;;;;;5.60;4.80;;;14.50;99.90;;;;;;4981690;28;20116;-83
2022/05/07 10:11:04;;;;;;;4.75;4.30;;;14.60;99.90;;;;;;5000553;28;20057;-83
2022/05/07 10:13:32;;;;;;;7.70;4.95;;;14.50;99.90;;;;;;4997125;28;20734;-83
2022/05/07 10:16:01;;;;;;;6.68;4.00;;;14.60;99.90;;;;;;5001309;28;20140;-82
2022/05/07 10:18:38;;;;;;;3.20;2.90;;;14.80;99.90;;;;;;5000557;28;20517;-82
2022/05/07 10:21:19;;;;;;;4.13;3.58;;;14.80;99.90;;;;;;4982541;28;20069;-83
2022/05/07 10:23:56;;;;;;;;;;;14.70;99.90;;;;;;4976741;28;20050;-82
2022/05/07 10:26:41;;;;;;;4.15;3.72;;;14.60;99.90;;;;;;4980942;28;20033;-82
2022/05/07 10:29:26;;;;;;;4.30;3.90;;;14.50;99.90;;;;;;4978911;28;20113;-82
2022/05/07 10:32:03;;;;;;;3.08;2.78;;;14.60;99.90;;;;;;4981257;28;20122;-82
2022/05/07 10:34:31;;;;;;;4.47;4.07;;;14.50;99.90;;;;;;4958530;28;20078;-82
2022/05/07 10:37:07;;;;;;;6.40;5.15;;;14.40;99.90;;;;;;4993201;28;20069;-82
2022/05/07 10:39:36;;;;;;;6.55;4.13;;;14.20;99.90;;;;;;4994314;28;20048;-82
2022/05/07 10:42:15;;;;;;;5.85;4.38;;;14.10;99.90;;;;;;4982071;28;20831;-82
2022/05/07 10:44:42;;;;;;;8.35;5.65;;;13.90;99.90;;;;;;4977315;28;20050;-82
2022/05/07 10:47:10;;;;;;;10.50;5.90;;;13.80;99.90;;;;;;4999262;28;20141;-82
2022/05/07 10:49:54;;;;;;;7.32;5.28;;;13.60;99.90;;;;;;4996863;28;20076;-82
2022/05/07 10:52:33;;;;;;;7.82;5.47;;;13.70;99.90;;;;;;4998705;28;20374;-82
2022/05/07 10:55:07;;;;;;;8.15;5.78;;;13.80;99.90;;;;;;4996352;28;20128;-82
2022/05/07 10:57:46;;;;;;;8.85;5.93;;;13.80;99.90;;;;;;4977742;28;20050;-81
2022/05/07 11:00:20;;;;;;;6.65;5.65;;;13.90;99.90;;;;;;4994049;28;20466;-82
2022/05/07 11:02:50;;;;;;;6.65;5.75;;;14.00;99.90;;;;;;4981673;28;20058;-82
2022/05/07 11:05:27;;;;;;;7.68;5.57;;;14.00;99.90;;;;;;4998343;28;20057;-82
2022/05/07 11:07:58;;;;;;;8.65;4.72;;;14.00;99.90;;;;;;4989908;28;20419;-82
2022/05/07 11:10:27;;;;;;;8.23;6.00;;;13.90;99.90;;;;;;4994923;28;20836;-82
2022/05/07 11:13:05;;;;;;;7.38;6.50;;;13.90;99.90;;;;;;5000497;28;20186;-83
2022/05/07 11:15:32;;;;;;;6.05;5.00;;;13.70;99.90;;;;;;4993994;28;20513;-82
2022/05/07 11:17:59;;;;;;;8.38;5.32;;;13.70;99.90;;;;;;4966660;28;20101;-83
2022/05/07 11:20:31;;;;;;;9.15;5.95;;;13.60;99.90;;;;;;4976964;28;20057;-82
2022/05/07 11:23:00;;;;;;;9.40;6.38;;;13.70;99.90;;;;;;4984631;28;20447;-83
2022/05/07 11:25:28;;;;;;;8.02;7.10;;;13.60;99.90;;;;;;4978719;28;20137;-83
2022/05/07 11:27:57;;;;;;;10.63;6.72;;;13.60;99.90;;;;;;4997985;28;20565;-83
2022/05/07 11:30:25;;;;;;;10.47;6.23;;;13.50;99.90;;;;;;4997945;28;20049;-82
2022/05/07 11:32:54;;;;;;;6.72;5.32;;;13.60;99.90;;;;;;5000381;28;20053;-83
2022/05/07 11:35:25;;;;;;;6.72;4.50;;;13.70;99.90;;;;;;4998728;28;20046;-83
2022/05/07 11:37:52;;;;;;;8.10;5.07;;;13.80;99.90;;;;;;4981412;28;20132;-82
2022/05/07 11:40:29;;;;;;;6.45;5.32;;;13.90;99.90;;;;;;4984043;28;20065;-82
2022/05/07 11:45:42;;;;;;;7.60;4.40;;;13.70;99.90;;;;;;4995339;28;20564;-83
2022/05/07 11:48:23;;;;;;;5.70;3.85;;;13.80;99.90;;;;;;4997520;28;20076;-83
2022/05/07 11:50:51;;;;;;;4.35;3.30;;;13.80;99.90;;;;;;5000074;28;20057;-83
2022/05/07 11:53:23;;;;;;;3.22;2.92;;;13.80;99.90;;;;;;4979902;28;20133;-83
2022/05/07 11:55:50;;;;;;;5.38;3.40;;;13.90;99.90;;;;;;4990783;28;20112;-83
2022/05/07 11:58:22;;;;;;;5.50;3.30;;;14.00;99.90;;;;;;4979580;28;22192;-83
2022/05/07 12:00:56;;;;;;;5.65;3.50;;;14.10;99.90;;;;;;4980650;28;20042;-82
2022/05/07 12:03:25;;;;;;;3.63;2.88;;;14.00;99.90;;;;;;4979357;28;20104;-83
2022/05/07 12:05:56;;;;;;;4.40;3.28;;;14.00;99.90;;;;;;4992801;28;20093;-82
2022/05/07 12:08:30;;;;;;;4.95;2.40;;;14.10;99.90;;;;;;4980639;28;20097;-83
2022/05/07 12:10:58;;;;;;;4.10;2.60;;;14.00;99.90;;;;;;4982400;28;20085;-83
2022/05/07 12:13:25;;;;;;;4.50;2.67;;;14.00;99.90;;;;;;4995116;28;20533;-82
2022/05/07 12:18:48;;;;;;;2.65;1.98;;;14.10;99.90;;;;;;4982622;28;20104;-83
2022/05/07 12:21:16;;;;;;;2.45;2.25;;;14.10;99.90;;;;;;4999299;28;20050;-82
2022/05/07 12:32:01;;;;;;;2.70;1.50;;;14.50;99.90;;;;;;4995879;28;20058;-83
2022/05/07 12:34:30;;;;;;;1.38;1.27;;;14.50;99.90;;;;;;4999499;28;20164;-83
2022/05/07 12:36:57;;;;;;;1.73;1.63;;;14.80;99.90;;;;;;5005094;28;20149;-83
2022/05/07 12:39:24;;;;;;;1.98;1.40;;;14.90;99.90;;;;;;4985613;28;20356;-82
2022/05/07 12:41:51;;;;;;;1.63;1.52;;;14.90;99.90;;;;;;4984419;28;20203;-82
2022/05/07 12:44:18;;;;;;;2.55;1.30;;;15.00;99.90;;;;;;4985307;28;20096;-83
2022/05/07 12:46:48;;;;;;;1.60;1.23;;;15.30;99.90;;;;;;5003343;28;20084;-84
2022/05/07 12:49:15;;;;;;;2.17;1.55;;;15.40;99.90;;;;;;4982985;28;20109;-82
2022/05/07 12:51:42;;;;;;;2.38;2.10;;;15.40;99.90;;;;;;5001678;28;20045;-82
2022/05/07 12:54:09;;;;;;;2.05;1.52;;;15.70;99.90;;;;;;5003943;28;20042;-82
2022/05/07 12:56:38;;;;;;;1.77;1.30;;;16.00;99.90;;;;;;4984684;28;20212;-82
2022/05/07 12:59:05;;;;;;;2.90;1.75;;;16.20;99.90;;;;;;5001244;28;20145;-82
2022/05/07 13:01:32;;;;;;;1.23;1.13;;;16.00;99.90;;;;;;4981545;28;20517;-82
2022/05/07 13:04:00;;;;;;;2.03;1.65;;;15.90;99.90;;;;;;4983874;28;20056;-82
2022/05/07 13:06:27;;;;;;;6.10;2.95;;;16.00;99.90;;;;;;5004836;28;20079;-83
2022/05/07 13:08:58;;;;;;;2.58;1.73;;;16.10;99.90;;;;;;5002296;28;20077;-81
2022/05/07 13:11:28;;;;;;;2.13;1.80;;;16.10;99.90;;;;;;4997989;28;20046;-82
2022/05/07 13:13:56;;;;;;;3.70;1.90;;;16.00;99.90;;;;;;4993903;28;20052;-81
2022/05/07 13:16:23;;;;;;;2.78;1.67;;;15.80;99.90;;;;;;4992807;28;20057;-81
2022/05/07 13:18:50;;;;;;;3.72;2.70;;;15.80;99.90;;;;;;4977161;28;20065;-81
2022/05/07 13:21:18;;;;;;;4.03;2.40;;;15.90;99.90;;;;;;4993134;28;20046;-82
2022/05/07 13:23:45;;;;;;;2.58;2.38;;;16.10;99.90;;;;;;4997574;28;20054;-81
2022/05/07 13:26:12;;;;;;;2.50;1.88;;;16.00;99.90;;;;;;4984066;28;20049;-81
2022/05/07 13:29:01;;;;;;;2.25;1.95;;;15.90;99.90;;;;;;4979627;28;20046;-81
2022/05/07 13:31:28;;;;;;;2.58;2.38;;;16.00;99.90;;;;;;4967344;28;20116;-81
2022/05/07 13:33:56;;;;;;;7.95;6.43;;;15.90;99.90;;;;;;4994918;28;20050;-81
2022/05/07 13:36:24;;;;;;;6.32;4.63;;;15.80;99.90;;;;;;4997830;28;20041;-81
2022/05/07 13:38:51;;;;;;;4.53;2.83;;;15.80;99.90;;;;;;4995217;28;20046;-81
2022/05/07 13:41:21;;;;;;;3.83;2.60;;;15.90;99.90;;;;;;4971702;28;20566;-81
2022/05/07 13:43:49;;;;;;;2.65;2.28;;;16.00;99.90;;;;;;4979668;28;20050;-81